createdAt,value
2022-08-19T00:01:28.622Z,22.40
2022-08-19T00:03:58.548Z,22.40
2022-08-19T00:06:26.739Z,22.40
2022-08-19T00:08:54.683Z,22.40
2022-08-19T00:11:25.338Z,22.30
2022-08-19T00:13:54.126Z,22.40
2022-08-19T00:16:26.302Z,22.30
2022-08-19T00:18:56.510Z,22.40
2022-08-19T00:21:27.548Z,22.30
2022-08-19T00:23:56.232Z,22.30
2022-08-19T00:26:24.096Z,22.40
2022-08-19T00:28:52.108Z,22.40
2022-08-19T00:31:20.052Z,22.40
2022-08-19T00:33:48.805Z,22.40
2022-08-19T00:36:16.724Z,22.40
2022-08-19T00:38:46.006Z,22.30
2022-08-19T00:41:16.365Z,22.30
2022-08-19T00:43:44.307Z,22.30
2022-08-19T00:46:12.223Z,22.30
2022-08-19T00:48:40.127Z,22.30
2022-08-19T00:51:08.104Z,22.30
2022-08-19T00:53:38.172Z,22.40
2022-08-19T00:56:07.767Z,22.30
2022-08-19T00:58:36.343Z,22.40
2022-08-19T01:01:05.160Z,22.40
2022-08-19T01:03:54.124Z,22.40
2022-08-19T01:06:21.226Z,22.40
2022-08-19T01:08:50.023Z,22.30
2022-08-19T01:11:19.631Z,22.30
2022-08-19T01:13:49.907Z,22.30
2022-08-19T01:16:19.257Z,22.30
2022-08-19T01:18:47.227Z,22.40
2022-08-19T01:21:18.795Z,22.40
2022-08-19T01:23:48.661Z,22.40
2022-08-19T01:26:17.482Z,22.40
2022-08-19T01:28:46.976Z,22.40
2022-08-19T01:31:27.200Z,22.40
2022-08-19T01:33:56.742Z,22.40
2022-08-19T01:36:26.503Z,22.40
2022-08-19T01:38:56.160Z,22.40
2022-08-19T01:41:24.564Z,22.40
2022-08-19T01:44:13.232Z,22.40
2022-08-19T01:46:41.478Z,22.30
2022-08-19T01:49:09.879Z,22.30
2022-08-19T01:51:40.181Z,22.30
2022-08-19T01:54:10.043Z,22.30
2022-08-19T01:56:37.991Z,22.30
2022-08-19T01:59:18.413Z,22.30
2022-08-19T02:01:46.378Z,22.20
2022-08-19T02:04:15.501Z,22.20
2022-08-19T02:06:43.366Z,22.20
2022-08-19T02:09:12.676Z,22.20
2022-08-19T02:11:40.739Z,22.10
2022-08-19T02:14:09.282Z,22.10
2022-08-19T02:16:37.839Z,22.10
2022-08-19T02:19:06.167Z,22.10
2022-08-19T02:21:34.308Z,22.10
2022-08-19T02:24:02.280Z,22.10
2022-08-19T02:26:31.556Z,22.00
2022-08-19T02:28:59.443Z,21.90
2022-08-19T02:31:28.881Z,21.90
2022-08-19T02:33:57.247Z,21.80
2022-08-19T02:36:26.078Z,21.80
2022-08-19T02:38:55.059Z,21.80
2022-08-19T02:41:26.739Z,21.80
2022-08-19T02:44:29.566Z,21.70
2022-08-19T02:46:46.945Z,21.70
2022-08-19T02:49:17.381Z,21.60
2022-08-19T02:51:46.727Z,21.50
2022-08-19T02:54:15.468Z,21.50
2022-08-19T02:56:43.749Z,21.50
2022-08-19T02:59:13.472Z,21.60
2022-08-19T03:01:42.481Z,21.50
2022-08-19T03:04:12.663Z,21.50
2022-08-19T03:06:41.096Z,21.40
2022-08-19T03:09:09.338Z,21.40
2022-08-19T03:11:37.575Z,21.20
2022-08-19T03:14:06.992Z,21.10
2022-08-19T03:16:41.937Z,21.10
2022-08-19T03:19:10.072Z,21.10
2022-08-19T03:21:37.957Z,21.10
2022-08-19T03:24:07.768Z,21.10
2022-08-19T03:26:36.202Z,21.20
2022-08-19T03:29:05.829Z,21.10
2022-08-19T03:31:45.626Z,21.10
2022-08-19T03:34:23.852Z,21.10
2022-08-19T03:36:51.897Z,21.10
2022-08-19T03:39:19.931Z,21.10
2022-08-19T03:41:49.970Z,21.10
2022-08-19T03:44:38.586Z,21.10
2022-08-19T03:47:06.780Z,21.10
2022-08-19T03:49:37.589Z,21.00
2022-08-19T03:52:08.384Z,21.00
2022-08-19T03:54:36.543Z,21.00
2022-08-19T03:57:04.762Z,21.00
2022-08-19T03:59:34.027Z,21.00
2022-08-19T04:02:03.185Z,21.10
2022-08-19T04:04:31.864Z,21.10
2022-08-19T04:07:01.241Z,21.10
2022-08-19T04:09:29.107Z,21.00
2022-08-19T04:11:58.044Z,21.00
2022-08-19T04:14:27.384Z,20.90
2022-08-19T04:16:55.350Z,20.90
2022-08-19T04:19:24.266Z,20.80
2022-08-19T04:21:53.836Z,20.80
2022-08-19T04:24:23.860Z,20.70
2022-08-19T04:26:52.357Z,20.70
2022-08-19T04:29:23.137Z,20.70
2022-08-19T04:31:51.041Z,20.70
2022-08-19T04:34:23.069Z,20.60
2022-08-19T04:36:52.101Z,20.60
2022-08-19T04:39:21.095Z,20.60
2022-08-19T04:42:07.808Z,20.50
2022-08-19T04:44:44.955Z,20.50
2022-08-19T04:47:14.355Z,20.50
2022-08-19T04:49:42.693Z,20.50
2022-08-19T04:52:10.637Z,20.50
2022-08-19T04:54:40.061Z,20.60
2022-08-19T04:57:10.811Z,20.60
2022-08-19T04:59:39.580Z,20.70
2022-08-19T05:02:08.894Z,20.70
2022-08-19T05:04:39.993Z,20.80
2022-08-19T05:07:08.647Z,20.80
2022-08-19T05:09:57.000Z,20.90
2022-08-19T05:12:29.360Z,21.00
2022-08-19T05:14:58.414Z,21.10
2022-08-19T05:17:28.183Z,21.20
2022-08-19T05:20:14.639Z,21.40
2022-08-19T05:22:43.167Z,21.50
2022-08-19T05:25:14.267Z,21.70
2022-08-19T05:27:44.130Z,21.80
2022-08-19T05:30:12.808Z,22.00
2022-08-19T05:32:41.007Z,22.20
2022-08-19T05:35:09.461Z,22.50
2022-08-19T05:37:37.544Z,22.70
2022-08-19T05:40:05.977Z,23.00
2022-08-19T05:42:34.026Z,23.30
2022-08-19T05:45:04.789Z,23.50
2022-08-19T05:47:32.965Z,23.80
2022-08-19T05:50:02.898Z,24.20
2022-08-19T05:52:33.468Z,24.50
2022-08-19T05:55:03.543Z,24.80
2022-08-19T05:57:31.882Z,25.10
2022-08-19T06:00:01.316Z,25.40
2022-08-19T06:02:32.347Z,25.70
2022-08-19T06:05:00.298Z,26.00
2022-08-19T06:07:28.393Z,26.30
2022-08-19T06:10:00.048Z,26.60
2022-08-19T06:12:31.642Z,26.90
2022-08-19T06:15:01.010Z,27.30
2022-08-19T06:17:31.259Z,27.70
2022-08-19T06:20:00.234Z,28.40
2022-08-19T06:22:28.948Z,29.00
2022-08-19T06:24:56.985Z,29.30
2022-08-19T06:27:24.925Z,29.80
2022-08-19T06:29:52.813Z,30.30
2022-08-19T06:32:20.717Z,30.70
2022-08-19T06:34:49.939Z,31.20
2022-08-19T06:37:17.866Z,31.70
2022-08-19T06:39:46.157Z,32.40
2022-08-19T06:42:17.677Z,32.70
2022-08-19T06:44:48.327Z,32.90
2022-08-19T06:47:23.375Z,33.20
2022-08-19T06:50:01.306Z,33.40
2022-08-19T06:52:31.114Z,33.80
2022-08-19T06:55:06.123Z,33.80
2022-08-19T06:57:35.117Z,33.40
2022-08-19T07:00:03.224Z,33.10
2022-08-19T07:02:31.140Z,32.70
2022-08-19T07:05:04.133Z,32.50
2022-08-19T07:07:35.017Z,32.60
2022-08-19T07:10:04.933Z,32.60
2022-08-19T07:12:35.353Z,32.90
2022-08-19T07:15:04.245Z,33.60
2022-08-19T07:17:34.519Z,34.30
2022-08-19T07:20:05.366Z,34.90
2022-08-19T07:22:35.179Z,35.20
2022-08-19T07:25:04.997Z,35.00
2022-08-19T07:27:33.729Z,35.00
2022-08-19T07:30:01.841Z,35.10
2022-08-19T07:32:31.745Z,35.10
2022-08-19T07:35:01.470Z,35.20
2022-08-19T07:37:33.347Z,35.30
2022-08-19T07:40:01.911Z,35.90
2022-08-19T07:42:30.568Z,36.20
2022-08-19T07:44:59.127Z,36.40
2022-08-19T07:47:50.347Z,36.40
2022-08-19T07:50:16.453Z,36.70
2022-08-19T07:52:48.982Z,37.50
2022-08-19T07:55:41.892Z,38.20
2022-08-19T07:58:11.213Z,39.20
2022-08-19T08:00:39.654Z,39.80
2022-08-19T08:03:09.439Z,40.10
2022-08-19T08:05:54.891Z,40.40
2022-08-19T08:08:44.089Z,39.90
2022-08-19T08:11:16.886Z,40.10
2022-08-19T08:13:46.166Z,40.80
2022-08-19T08:16:14.530Z,41.60
2022-08-19T08:18:50.306Z,42.70
2022-08-19T08:21:18.905Z,43.40
2022-08-19T08:23:48.540Z,42.70
2022-08-19T08:26:17.286Z,41.30
2022-08-19T08:28:49.418Z,40.10
2022-08-19T08:31:19.497Z,38.40
2022-08-19T08:33:48.581Z,37.20
2022-08-19T08:36:17.245Z,36.10
2022-08-19T08:38:46.414Z,35.40
2022-08-19T08:41:21.093Z,34.20
2022-08-19T08:43:51.904Z,33.10
2022-08-19T08:46:31.365Z,32.60
2022-08-19T08:49:04.654Z,33.10
2022-08-19T08:51:35.590Z,35.10
2022-08-19T08:54:04.910Z,36.90
2022-08-19T08:56:34.509Z,37.80
2022-08-19T08:59:08.330Z,37.70
2022-08-19T09:01:37.069Z,36.80
2022-08-19T09:04:05.946Z,35.90
2022-08-19T09:06:40.658Z,36.10
2022-08-19T09:09:15.213Z,36.70
2022-08-19T09:11:49.830Z,36.30
2022-08-19T09:14:47.352Z,35.30
2022-08-19T09:17:11.347Z,34.60
2022-08-19T09:19:50.525Z,33.80
2022-08-19T09:22:25.438Z,33.90
2022-08-19T09:24:54.263Z,35.20
2022-08-19T09:27:42.002Z,36.30
2022-08-19T09:30:13.655Z,37.30
2022-08-19T09:32:43.340Z,37.60
2022-08-19T09:35:11.965Z,37.40
2022-08-19T09:37:40.579Z,36.70
2022-08-19T09:40:09.331Z,36.90
2022-08-19T09:42:50.363Z,37.20
2022-08-19T09:45:22.623Z,37.00
2022-08-19T09:47:52.100Z,37.40
2022-08-19T09:50:22.444Z,38.10
2022-08-19T09:52:57.154Z,37.60
2022-08-19T09:55:32.053Z,37.20
2022-08-19T09:58:03.201Z,37.40
2022-08-19T10:00:32.302Z,38.60
2022-08-19T10:03:00.292Z,38.80
2022-08-19T10:05:48.589Z,38.00
2022-08-19T10:08:17.716Z,37.20
2022-08-19T10:10:47.093Z,36.90
2022-08-19T10:13:17.892Z,38.40
2022-08-19T10:15:47.561Z,39.50
2022-08-19T10:18:17.637Z,40.90
2022-08-19T10:20:46.420Z,41.00
2022-08-19T10:23:20.755Z,41.10
2022-08-19T10:25:49.306Z,42.10
2022-08-19T10:28:19.390Z,43.70
2022-08-19T10:30:47.709Z,44.20
2022-08-19T10:33:36.518Z,44.50
2022-08-19T10:36:04.598Z,43.60
2022-08-19T10:38:33.097Z,42.60
2022-08-19T10:41:08.534Z,42.70
2022-08-19T10:43:39.268Z,42.60
2022-08-19T10:46:09.676Z,42.50
2022-08-19T10:48:45.117Z,43.60
2022-08-19T10:51:31.083Z,43.90
2022-08-19T10:53:59.104Z,43.50
2022-08-19T10:56:45.059Z,44.70
2022-08-19T10:59:14.996Z,44.70
2022-08-19T11:01:43.787Z,45.10
2022-08-19T11:04:14.661Z,44.40
2022-08-19T11:06:44.276Z,43.70
2022-08-19T11:09:12.819Z,43.70
2022-08-19T11:11:42.009Z,44.60
2022-08-19T11:14:10.507Z,45.90
2022-08-19T11:16:40.336Z,47.20
2022-08-19T11:19:10.389Z,46.80
2022-08-19T11:21:39.070Z,46.60
2022-08-19T11:24:08.414Z,46.80
2022-08-19T11:26:36.608Z,48.10
2022-08-19T11:29:04.949Z,47.80
2022-08-19T11:31:33.938Z,46.60
2022-08-19T11:34:04.785Z,46.30
2022-08-19T11:36:33.387Z,46.50
2022-08-19T11:39:01.763Z,46.70
2022-08-19T11:41:29.787Z,46.00
2022-08-19T11:43:57.698Z,46.10
2022-08-19T11:46:26.958Z,47.20
2022-08-19T11:48:55.336Z,46.90
2022-08-19T11:51:26.618Z,46.30
2022-08-19T11:53:54.993Z,45.60
2022-08-19T11:56:23.674Z,44.00
2022-08-19T11:58:53.091Z,43.80
2022-08-19T12:01:22.178Z,42.40
2022-08-19T12:03:51.502Z,41.60
2022-08-19T12:06:21.056Z,41.80
2022-08-19T12:08:50.366Z,42.70
2022-08-19T12:11:18.321Z,43.70
2022-08-19T12:13:47.164Z,44.30
2022-08-19T12:16:16.178Z,44.80
2022-08-19T12:18:44.917Z,44.30
2022-08-19T12:21:14.610Z,43.90
2022-08-19T12:23:43.064Z,43.90
2022-08-19T12:26:12.706Z,43.30
2022-08-19T12:28:40.837Z,43.10
2022-08-19T12:31:08.887Z,42.40
2022-08-19T12:33:36.833Z,42.80
2022-08-19T12:36:06.353Z,41.80
2022-08-19T12:38:35.499Z,41.70
2022-08-19T12:41:07.158Z,41.90
2022-08-19T12:43:36.687Z,41.90
2022-08-19T12:46:05.179Z,41.50
2022-08-19T12:48:35.001Z,42.00
2022-08-19T12:51:07.493Z,42.70
2022-08-19T12:53:35.533Z,42.90
2022-08-19T12:56:09.994Z,42.70
2022-08-19T12:58:42.673Z,42.50
2022-08-19T13:01:22.947Z,41.50
2022-08-19T13:03:53.066Z,41.60
2022-08-19T13:06:21.362Z,40.80
2022-08-19T13:08:49.272Z,40.60
2022-08-19T13:11:18.478Z,39.40
2022-08-19T13:13:49.481Z,39.20
2022-08-19T13:16:17.568Z,39.30
2022-08-19T13:18:47.426Z,39.60
2022-08-19T13:21:15.799Z,39.10
2022-08-19T13:23:44.096Z,38.60
2022-08-19T13:26:13.691Z,39.00
2022-08-19T13:28:59.697Z,39.20
2022-08-19T13:31:47.311Z,39.20
2022-08-19T13:34:16.048Z,40.00
2022-08-19T13:36:44.007Z,40.70
2022-08-19T13:39:11.984Z,40.80
2022-08-19T13:41:46.472Z,40.60
2022-08-19T13:44:14.566Z,40.00
2022-08-19T13:46:46.064Z,39.50
2022-08-19T13:49:16.100Z,39.60
2022-08-19T13:51:44.819Z,39.00
2022-08-19T13:54:13.386Z,38.20
2022-08-19T13:56:46.048Z,37.40
2022-08-19T13:59:14.187Z,36.70
2022-08-19T14:01:42.654Z,36.20
2022-08-19T14:04:12.454Z,35.70
2022-08-19T14:06:40.453Z,35.80
2022-08-19T14:09:08.782Z,36.40
2022-08-19T14:11:36.854Z,37.00
2022-08-19T14:14:04.920Z,37.10
2022-08-19T14:16:33.096Z,37.00
2022-08-19T14:19:01.261Z,36.70
2022-08-19T14:21:30.622Z,36.80
2022-08-19T14:23:59.054Z,37.40
2022-08-19T14:26:27.034Z,38.10
2022-08-19T14:28:58.705Z,38.30
2022-08-19T14:31:30.726Z,38.80
2022-08-19T14:33:59.199Z,39.10
2022-08-19T14:36:27.680Z,39.30
2022-08-19T14:38:58.557Z,39.00
2022-08-19T14:41:27.383Z,38.50
2022-08-19T14:43:56.019Z,38.40
2022-08-19T14:46:25.072Z,38.10
2022-08-19T14:48:53.493Z,38.00
2022-08-19T14:51:22.572Z,37.80
2022-08-19T14:53:50.657Z,37.90
2022-08-19T14:56:21.667Z,37.50
2022-08-19T14:58:53.005Z,37.20
2022-08-19T15:01:23.587Z,36.80
2022-08-19T15:03:55.986Z,36.50
2022-08-19T15:06:24.567Z,36.10
2022-08-19T15:08:53.755Z,36.30
2022-08-19T15:11:24.277Z,36.50
2022-08-19T15:13:53.919Z,36.50
2022-08-19T15:16:22.341Z,36.40
2022-08-19T15:18:51.334Z,36.50
2022-08-19T15:21:26.402Z,36.40
2022-08-19T15:23:55.689Z,36.10
2022-08-19T15:26:27.178Z,35.80
2022-08-19T15:28:55.147Z,35.70
2022-08-19T15:31:28.515Z,35.70
2022-08-19T15:33:58.738Z,36.00
2022-08-19T15:36:27.703Z,36.10
2022-08-19T15:38:56.026Z,35.90
2022-08-19T15:41:26.675Z,35.60
2022-08-19T15:43:55.597Z,35.70
2022-08-19T15:46:24.689Z,35.70
2022-08-19T15:48:56.034Z,35.80
2022-08-19T15:51:28.382Z,35.80
2022-08-19T15:53:56.380Z,35.90
2022-08-19T15:56:27.458Z,35.80
2022-08-19T15:59:13.260Z,35.80
2022-08-19T16:02:00.811Z,35.80
2022-08-19T16:04:46.478Z,35.70
2022-08-19T16:07:14.519Z,35.50
2022-08-19T16:09:50.570Z,35.50
2022-08-19T16:12:20.123Z,35.30
2022-08-19T16:14:49.186Z,35.50
2022-08-19T16:17:17.212Z,35.30
2022-08-19T16:19:47.576Z,35.20
2022-08-19T16:22:18.113Z,34.80
2022-08-19T16:24:46.075Z,34.60
2022-08-19T16:27:14.207Z,34.60
2022-08-19T16:29:43.615Z,34.10
2022-08-19T16:32:12.431Z,34.00
2022-08-19T16:34:41.364Z,34.00
2022-08-19T16:37:09.569Z,33.70
2022-08-19T16:39:37.883Z,33.80
2022-08-19T16:42:07.411Z,33.80
2022-08-19T16:44:35.829Z,33.90
2022-08-19T16:47:05.275Z,33.80
2022-08-19T16:49:54.076Z,33.80
2022-08-19T16:52:21.533Z,33.80
2022-08-19T16:54:49.733Z,33.90
2022-08-19T16:57:18.436Z,33.60
2022-08-19T16:59:48.779Z,33.30
2022-08-19T17:02:19.495Z,33.10
2022-08-19T17:04:58.275Z,33.00
2022-08-19T17:07:27.288Z,32.80
2022-08-19T17:09:55.389Z,32.60
2022-08-19T17:12:32.125Z,32.30
2022-08-19T17:15:00.852Z,32.10
2022-08-19T17:17:30.163Z,31.90
2022-08-19T17:19:58.603Z,31.70
2022-08-19T17:22:26.540Z,31.60
2022-08-19T17:24:56.433Z,31.60
2022-08-19T17:27:26.687Z,31.40
2022-08-19T17:29:55.671Z,31.30
2022-08-19T17:32:25.332Z,31.10
2022-08-19T17:34:55.107Z,30.90
2022-08-19T17:37:23.107Z,30.60
2022-08-19T17:39:51.250Z,30.50
2022-08-19T17:42:19.377Z,30.40
2022-08-19T17:44:50.804Z,30.20
2022-08-19T17:47:21.176Z,30.10
2022-08-19T17:49:49.465Z,30.10
2022-08-19T17:52:18.861Z,30.00
2022-08-19T17:54:47.523Z,29.80
2022-08-19T17:57:15.566Z,29.70
2022-08-19T17:59:43.480Z,29.50
2022-08-19T18:02:12.308Z,29.50
2022-08-19T18:04:40.301Z,29.30
2022-08-19T18:07:08.442Z,29.20
2022-08-19T18:09:41.683Z,29.00
2022-08-19T18:12:12.081Z,28.90
2022-08-19T18:14:40.531Z,28.80
2022-08-19T18:17:10.810Z,28.60
2022-08-19T18:19:42.070Z,28.50
2022-08-19T18:22:12.308Z,28.40
2022-08-19T18:24:42.476Z,28.20
2022-08-19T18:27:13.940Z,28.10
2022-08-19T18:29:41.973Z,27.90
2022-08-19T18:32:13.284Z,27.80
2022-08-19T18:34:42.089Z,27.60
2022-08-19T18:37:10.291Z,27.50
2022-08-19T18:39:55.946Z,27.40
2022-08-19T18:42:42.832Z,27.30
2022-08-19T18:45:29.014Z,27.10
2022-08-19T18:48:23.982Z,26.90
2022-08-19T18:50:56.857Z,26.70
2022-08-19T18:53:25.037Z,26.60
2022-08-19T18:55:55.617Z,26.40
2022-08-19T18:58:33.676Z,26.30
2022-08-19T19:01:02.729Z,26.20
2022-08-19T19:03:30.674Z,26.10
2022-08-19T19:05:58.834Z,26.00
2022-08-19T19:08:27.592Z,25.90
2022-08-19T19:10:56.170Z,25.80
2022-08-19T19:13:28.603Z,25.70
2022-08-19T19:15:56.922Z,25.70
2022-08-19T19:18:25.165Z,25.60
2022-08-19T19:20:53.129Z,25.50
2022-08-19T19:23:22.425Z,25.40
2022-08-19T19:25:51.746Z,25.30
2022-08-19T19:28:23.926Z,25.30
2022-08-19T19:30:54.305Z,25.20
2022-08-19T19:33:22.565Z,25.10
2022-08-19T19:35:50.474Z,25.10
2022-08-19T19:38:18.430Z,25.10
2022-08-19T19:40:46.549Z,25.00
2022-08-19T19:43:18.435Z,24.90
2022-08-19T19:45:48.300Z,24.90
2022-08-19T19:48:17.719Z,24.80
2022-08-19T19:50:46.105Z,24.70
2022-08-19T19:53:23.099Z,24.70
2022-08-19T19:55:54.920Z,24.70
2022-08-19T19:58:28.832Z,24.60
2022-08-19T20:00:59.732Z,24.50
2022-08-19T20:03:30.061Z,24.50
2022-08-19T20:05:59.279Z,24.40
2022-08-19T20:08:45.677Z,24.30
2022-08-19T20:11:16.729Z,24.20
2022-08-19T20:13:44.654Z,24.10
2022-08-19T20:16:12.601Z,24.00
2022-08-19T20:18:43.969Z,24.00
2022-08-19T20:21:12.336Z,23.90
2022-08-19T20:23:40.354Z,23.80
2022-08-19T20:26:10.297Z,23.70
2022-08-19T20:28:58.395Z,23.70
2022-08-19T20:31:57.205Z,23.60
2022-08-19T20:34:27.419Z,23.50
2022-08-19T20:36:55.645Z,23.50
2022-08-19T20:39:23.626Z,23.40
2022-08-19T20:41:51.591Z,23.30
2022-08-19T20:44:19.954Z,23.30
2022-08-19T20:46:55.398Z,23.20
2022-08-19T20:49:27.415Z,23.20
2022-08-19T20:51:58.298Z,23.10
2022-08-19T20:54:26.911Z,23.10
2022-08-19T20:56:55.138Z,23.00
2022-08-19T20:59:23.639Z,23.00
2022-08-19T21:01:52.861Z,22.90
2022-08-19T21:04:21.586Z,22.80
2022-08-19T21:06:49.721Z,22.80
2022-08-19T21:09:19.714Z,22.80
2022-08-19T21:11:47.731Z,22.80
2022-08-19T21:14:15.787Z,22.80
2022-08-19T21:16:43.991Z,22.80
2022-08-19T21:19:12.151Z,22.70
2022-08-19T21:21:40.072Z,22.70
2022-08-19T21:24:08.055Z,22.60
2022-08-19T21:26:37.323Z,22.60
2022-08-19T21:29:05.304Z,22.50
2022-08-19T21:31:33.334Z,22.40
2022-08-19T21:34:01.604Z,22.30
2022-08-19T21:36:29.554Z,22.30
2022-08-19T21:38:57.494Z,22.20
2022-08-19T21:41:25.470Z,22.10
2022-08-19T21:43:54.933Z,22.00
2022-08-19T21:46:22.848Z,22.00
2022-08-19T21:48:50.768Z,22.00
2022-08-19T21:51:18.871Z,21.90
2022-08-19T21:53:52.808Z,21.90
2022-08-19T21:56:21.070Z,21.80
2022-08-19T21:58:49.354Z,21.80
2022-08-19T22:01:19.090Z,21.80
2022-08-19T22:03:47.056Z,21.70
2022-08-19T22:06:16.298Z,21.70
2022-08-19T22:08:44.861Z,21.70
2022-08-19T22:11:13.097Z,21.60
2022-08-19T22:13:41.279Z,21.50
2022-08-19T22:16:09.694Z,21.40
2022-08-19T22:18:39.159Z,21.20
2022-08-19T22:21:11.294Z,21.20
2022-08-19T22:23:40.470Z,21.10
2022-08-19T22:26:08.775Z,21.10
2022-08-19T22:28:36.693Z,21.10
2022-08-19T22:31:05.887Z,21.20
2022-08-19T22:33:34.525Z,21.20
2022-08-19T22:36:04.492Z,21.20
2022-08-19T22:38:32.604Z,21.20
2022-08-19T22:41:00.471Z,21.20
2022-08-19T22:43:30.101Z,21.20
2022-08-19T22:45:58.688Z,21.20
2022-08-19T22:48:28.137Z,21.20
2022-08-19T22:51:13.745Z,21.20
2022-08-19T22:53:44.789Z,21.10
2022-08-19T22:56:15.506Z,21.10
2022-08-19T22:58:44.300Z,21.00
2022-08-19T23:01:16.325Z,20.80
2022-08-19T23:03:57.571Z,20.70
2022-08-19T23:06:33.272Z,20.70
2022-08-19T23:09:05.143Z,20.70
2022-08-19T23:11:35.553Z,20.70
2022-08-19T23:14:06.087Z,20.60
2022-08-19T23:16:36.772Z,20.50
2022-08-19T23:19:04.669Z,20.50
2022-08-19T23:21:32.617Z,20.50
2022-08-19T23:24:00.548Z,20.40
2022-08-19T23:26:33.858Z,20.40
2022-08-19T23:29:20.881Z,20.30
2022-08-19T23:31:49.831Z,20.30
2022-08-19T23:34:17.982Z,20.20
2022-08-19T23:36:46.315Z,20.20
2022-08-19T23:39:14.212Z,20.20
2022-08-19T23:41:43.482Z,20.20
2022-08-19T23:44:14.787Z,20.30
2022-08-19T23:46:55.258Z,20.40
2022-08-19T23:49:24.546Z,20.50
2022-08-19T23:51:52.554Z,20.60
2022-08-19T23:54:20.457Z,20.70
2022-08-19T23:56:50.004Z,20.70
2022-08-19T23:59:19.202Z,20.70
